createdAt,value
2023-02-06T00:01:09.105Z,32.58
2023-02-06T00:08:11.121Z,32.35
2023-02-06T00:15:13.107Z,29.60
2023-02-06T00:22:15.104Z,20.65
2023-02-06T00:29:17.060Z,21.25
2023-02-06T00:36:19.080Z,18.15
2023-02-06T00:43:24.292Z,19.92
2023-02-06T00:50:26.280Z,18.38
2023-02-06T00:57:28.264Z,16.52
2023-02-06T01:04:30.285Z,17.98
2023-02-06T01:11:32.285Z,17.70
2023-02-06T01:18:34.203Z,17.55
2023-02-06T01:25:37.289Z,18.48
2023-02-06T01:32:40.700Z,18.58
2023-02-06T01:39:42.745Z,17.67
2023-02-06T01:46:47.316Z,17.52
2023-02-06T01:53:53.249Z,19.95
2023-02-06T02:00:56.249Z,19.85
2023-02-06T02:08:02.456Z,16.67
2023-02-06T02:15:04.657Z,15.20
2023-02-06T02:22:09.514Z,14.88
2023-02-06T02:29:26.680Z,14.55
2023-02-06T02:36:38.682Z,13.75
2023-02-06T02:43:45.777Z,13.43
2023-02-06T02:50:47.740Z,16.05
2023-02-06T02:57:53.035Z,15.73
2023-02-06T03:04:58.581Z,12.52
2023-02-06T03:12:32.707Z,13.48
2023-02-06T03:19:40.074Z,13.25
2023-02-06T03:26:43.929Z,12.75
2023-02-06T03:33:56.953Z,12.93
2023-02-06T03:41:00.887Z,12.20
2023-02-06T03:48:10.726Z,12.98
2023-02-06T03:55:21.398Z,11.25
2023-02-06T04:02:26.021Z,12.43
2023-02-06T04:09:27.940Z,10.65
2023-02-06T04:16:30.183Z,12.48
2023-02-06T04:23:32.253Z,11.50
2023-02-06T04:30:34.301Z,14.82
2023-02-06T04:37:37.870Z,14.55
2023-02-06T04:44:39.852Z,11.95
2023-02-06T04:51:42.549Z,12.50
2023-02-06T04:58:45.231Z,13.43
2023-02-06T05:05:47.210Z,13.40
2023-02-06T05:12:51.167Z,13.50
2023-02-06T05:19:53.145Z,13.65
2023-02-06T05:26:58.065Z,12.85
2023-02-06T05:34:00.148Z,14.60
2023-02-06T05:41:02.240Z,14.48
2023-02-06T05:48:04.411Z,15.02
2023-02-06T05:55:07.031Z,16.75
2023-02-06T06:02:09.177Z,13.80
2023-02-06T06:09:11.345Z,21.70
2023-02-06T06:16:13.608Z,21.20
2023-02-06T06:23:15.646Z,20.02
2023-02-06T06:30:17.846Z,22.23
2023-02-06T06:37:19.887Z,15.55
2023-02-06T06:44:22.048Z,16.90
2023-02-06T06:51:24.149Z,19.13
2023-02-06T06:58:26.198Z,18.42
2023-02-06T07:05:28.374Z,21.33
2023-02-06T07:12:30.295Z,21.45
2023-02-06T07:19:32.179Z,21.23
2023-02-06T07:26:34.281Z,21.15
2023-02-06T07:33:36.491Z,22.35
2023-02-06T07:40:46.068Z,24.92
2023-02-06T07:47:48.214Z,23.75
2023-02-06T07:54:52.022Z,20.77
2023-02-06T08:01:54.112Z,22.33
2023-02-06T08:08:56.680Z,30.13
2023-02-06T09:53:45.312Z,12.32
2023-02-06T10:01:27.228Z,10.20
2023-02-06T10:08:30.465Z,9.05
2023-02-06T10:15:36.960Z,11.48
2023-02-06T10:22:57.420Z,13.50
2023-02-06T10:30:00.730Z,8.93
2023-02-06T10:37:22.354Z,6.82
2023-02-06T10:44:33.237Z,10.35
2023-02-06T10:51:44.920Z,12.23
2023-02-06T10:58:51.686Z,11.55
2023-02-06T11:05:54.186Z,11.48
2023-02-06T11:13:10.851Z,8.00
2023-02-06T11:20:23.329Z,8.98
2023-02-06T11:27:26.345Z,7.22
2023-02-06T11:35:06.839Z,9.98
2023-02-06T11:42:17.462Z,9.38
2023-02-06T11:49:19.296Z,7.45
2023-02-06T11:56:21.621Z,7.93
2023-02-06T12:03:50.923Z,7.57
2023-02-06T12:11:01.851Z,8.57
2023-02-06T12:18:07.001Z,9.00
2023-02-06T12:25:27.901Z,5.03
2023-02-06T12:32:38.232Z,6.05
2023-02-06T12:39:41.272Z,4.88
2023-02-06T12:46:45.181Z,8.00
2023-02-06T12:53:54.698Z,7.25
2023-02-06T13:08:56.661Z,4.88
2023-02-06T13:16:00.669Z,6.55
2023-02-06T13:23:14.901Z,7.57
2023-02-06T13:30:29.021Z,4.88
2023-02-06T13:37:41.696Z,4.47
2023-02-06T13:44:43.790Z,5.95
2023-02-06T13:51:46.005Z,9.73
2023-02-06T13:58:58.251Z,8.90
2023-02-06T14:06:35.669Z,8.00
2023-02-06T14:13:40.349Z,9.27
2023-02-06T14:20:57.400Z,7.47
2023-02-06T14:28:05.422Z,8.93
2023-02-06T14:35:28.730Z,11.50
2023-02-06T14:42:38.060Z,7.25
2023-02-06T14:49:40.105Z,7.28
2023-02-06T14:56:43.367Z,11.02
2023-02-06T15:03:46.986Z,9.25
2023-02-06T15:10:58.541Z,9.88
2023-02-06T15:18:03.148Z,9.55
2023-02-06T15:25:17.253Z,9.82
2023-02-06T15:32:31.501Z,12.23
2023-02-06T15:39:33.506Z,12.27
2023-02-06T15:46:37.211Z,15.43
2023-02-06T15:53:40.911Z,15.43
2023-02-06T16:00:42.930Z,18.13
2023-02-06T16:07:47.357Z,21.23
2023-02-06T16:15:00.365Z,15.40
2023-02-06T16:22:15.295Z,13.98
2023-02-06T16:29:23.742Z,16.90
2023-02-06T16:36:25.624Z,12.82
2023-02-06T16:43:28.278Z,18.88
2023-02-06T16:50:30.420Z,15.32
2023-02-06T16:57:35.886Z,16.25
2023-02-06T17:04:37.987Z,20.10
2023-02-06T17:11:40.205Z,19.17
2023-02-06T17:18:42.487Z,29.02
2023-02-06T17:25:45.558Z,21.25
2023-02-06T17:32:48.030Z,23.67
2023-02-06T17:39:51.859Z,17.48
2023-02-06T17:46:54.402Z,15.77
2023-02-06T17:53:57.744Z,12.45
2023-02-06T18:01:00.231Z,18.08
2023-02-06T18:08:02.555Z,19.25
2023-02-06T18:15:05.576Z,15.52
2023-02-06T18:22:13.448Z,14.63
2023-02-06T18:29:15.749Z,16.83
2023-02-06T18:36:20.118Z,14.32
2023-02-06T18:43:22.543Z,11.10
2023-02-06T18:50:26.457Z,16.05
2023-02-06T18:57:31.693Z,16.25
2023-02-06T19:04:36.385Z,12.40
2023-02-06T19:11:39.125Z,6.50
2023-02-06T19:18:43.853Z,8.65
2023-02-06T19:25:50.848Z,11.35
2023-02-06T19:32:54.149Z,13.15
2023-02-06T19:39:56.929Z,13.15
2023-02-06T19:47:00.851Z,13.90
2023-02-06T19:54:05.058Z,16.25
2023-02-06T20:01:14.370Z,17.23
2023-02-06T20:08:17.452Z,15.20
2023-02-06T20:15:20.365Z,14.13
2023-02-06T20:22:24.197Z,14.10
2023-02-06T20:29:33.153Z,14.40
2023-02-06T20:36:36.028Z,14.23
2023-02-06T20:43:38.904Z,15.10
2023-02-06T20:50:41.362Z,14.85
2023-02-06T20:57:44.056Z,17.60
2023-02-06T21:04:46.618Z,14.10
2023-02-06T21:11:50.377Z,13.73
2023-02-06T21:18:53.585Z,13.52
2023-02-06T21:25:56.351Z,14.55
2023-02-06T21:32:58.537Z,14.65
2023-02-06T21:40:00.758Z,11.75
2023-02-06T21:47:02.792Z,12.93
2023-02-06T21:54:05.005Z,10.32
2023-02-06T22:01:08.934Z,15.40
2023-02-06T22:08:11.056Z,10.73
2023-02-06T22:15:12.982Z,12.18
2023-02-06T22:22:15.254Z,10.38
2023-02-06T22:29:18.326Z,13.57
2023-02-06T22:36:24.226Z,7.95
2023-02-06T22:43:26.318Z,12.02
2023-02-06T22:50:28.301Z,14.07
2023-02-06T22:57:30.372Z,14.07
2023-02-06T23:04:36.400Z,11.02
2023-02-06T23:11:38.404Z,11.70
2023-02-06T23:18:40.449Z,12.15
2023-02-06T23:25:45.239Z,10.52
2023-02-06T23:32:47.395Z,12.70
2023-02-06T23:39:50.051Z,10.75
2023-02-06T23:46:52.282Z,10.68
2023-02-06T23:53:54.329Z,10.82
